Time;durP1;ratioP1;P1;durP2;ratioP2;P2;SDS_P1;SDS_P2;PMS_P1;PMS_P2;Temp;Humidity;BMP_temperature;BMP_pressure;BME280_temperature;BME280_humidity;BME280_pressure;Samples;Min_cycle;Max_cycle;Signal;HPM_P1;HPM_P2
2021/09/30 00:01:42;;;;;;;1.90;0.90;;;14.70;99.90;;;;;;5019053;28;20477;-75
2021/09/30 00:04:11;;;;;;;0.90;0.63;;;14.60;99.90;;;;;;5023145;28;20517;-77
2021/09/30 00:06:39;;;;;;;1.63;0.70;;;14.60;99.90;;;;;;5015986;28;20980;-77
2021/09/30 00:09:07;;;;;;;1.00;0.77;;;14.40;99.90;;;;;;5023015;28;20463;-75
2021/09/30 00:11:41;;;;;;;0.90;0.60;;;14.30;99.90;;;;;;5023337;28;20448;-76
2021/09/30 00:14:15;;;;;;;0.90;0.70;;;14.20;99.90;;;;;;5012159;28;20490;-74
2021/09/30 00:17:20;;;;;;;0.57;0.57;;;14.20;99.90;;;;;;5023425;28;20463;-75
2021/09/30 00:33:52;;;;;;;0.50;0.50;;;14.50;99.90;;;;;;5018097;28;20480;-73
2021/09/30 00:41:57;;;;;;;1.27;0.70;;;15.00;99.90;;;;;;5010898;28;20479;-75
2021/09/30 00:47:28;;;;;;;0.60;0.60;;;14.90;99.90;;;;;;5022808;28;20463;-74
2021/09/30 00:50:08;;;;;;;1.07;0.60;;;14.90;99.90;;;;;;5022149;28;21520;-73
2021/09/30 00:52:42;;;;;;;1.17;0.60;;;14.70;99.90;;;;;;5022517;28;20818;-74
2021/09/30 01:18:33;;;;;;;0.60;0.57;;;14.20;99.90;;;;;;5002477;28;20453;-75
2021/09/30 01:46:52;;;;;;;0.83;0.60;;;14.60;99.90;;;;;;5021330;28;20513;-76
2021/09/30 01:52:52;;;;;;;1.37;0.70;;;14.60;99.90;;;;;;5021116;28;20528;-74
2021/09/30 02:21:07;;;;;;;1.27;0.80;;;13.80;99.90;;;;;;4979329;28;21008;-76
2021/09/30 02:26:38;;;;;;;0.70;0.70;;;13.70;99.90;;;;;;4979762;28;21224;-77
2021/09/30 02:29:22;;;;;;;0.83;0.60;;;14.00;99.90;;;;;;5021010;28;20520;-75
2021/09/30 02:38:50;;;;;;;1.27;0.77;;;14.10;99.90;;;;;;5020388;28;21034;-74
2021/09/30 03:00:19;;;;;;;0.60;0.60;;;14.00;99.90;;;;;;5001583;28;20462;-72
2021/09/30 03:02:52;;;;;;;0.80;0.60;;;14.00;99.90;;;;;;5020769;28;20478;-74
2021/09/30 03:05:22;;;;;;;0.90;0.80;;;14.00;99.90;;;;;;5017718;28;20511;-76
2021/09/30 03:07:54;;;;;;;1.03;0.83;;;14.00;99.90;;;;;;5021328;28;20457;-77
2021/09/30 03:10:24;;;;;;;1.70;0.60;;;13.90;99.90;;;;;;5019409;28;20457;-76
2021/09/30 03:12:55;;;;;;;0.63;0.63;;;13.90;99.90;;;;;;5016481;28;20525;-74
2021/09/30 03:15:38;;;;;;;2.10;0.60;;;13.90;99.90;;;;;;5014866;28;20474;-72
2021/09/30 03:18:26;;;;;;;2.70;2.00;;;13.80;99.90;;;;;;5019238;28;21061;-75
2021/09/30 03:22:00;;;;;;;0.60;0.60;;;13.80;99.90;;;;;;5019209;28;20474;-73
2021/09/30 03:23:45;;;;;;;0.60;0.60;;;13.90;99.90;;;;;;5022557;28;20996;-77
2021/09/30 03:26:15;;;;;;;1.50;0.80;;;13.90;99.90;;;;;;5023069;28;20461;-75
2021/09/30 03:28:43;;;;;;;1.57;0.50;;;14.00;99.90;;;;;;5018635;28;20453;-73
2021/09/30 03:31:13;;;;;;;0.60;0.60;;;13.90;99.90;;;;;;5013805;28;20467;-75
2021/09/30 03:33:42;;;;;;;0.93;0.60;;;13.90;99.90;;;;;;5023551;28;20486;-75
2021/09/30 03:36:11;;;;;;;0.87;0.70;;;13.90;99.90;;;;;;5024530;28;20463;-76
2021/09/30 03:38:39;;;;;;;1.30;0.80;;;13.80;99.90;;;;;;5024379;28;20504;-74
2021/09/30 03:41:08;;;;;;;2.10;0.60;;;13.80;99.90;;;;;;5023788;28;20556;-73
2021/09/30 03:43:37;;;;;;;0.70;0.70;;;13.80;99.90;;;;;;5021025;28;20476;-74
2021/09/30 03:46:05;;;;;;;1.87;0.67;;;13.80;99.90;;;;;;5023309;28;20503;-74
2021/09/30 03:48:33;;;;;;;0.90;0.80;;;13.80;99.90;;;;;;5013966;28;20474;-73
2021/09/30 03:51:09;;;;;;;1.33;0.70;;;13.80;99.90;;;;;;5024635;28;20508;-74
2021/09/30 03:53:48;;;;;;;0.83;0.60;;;13.80;99.90;;;;;;5023770;28;20457;-73
2021/09/30 03:56:48;;;;;;;3.17;0.70;;;13.90;99.90;;;;;;5023641;28;20458;-76
2021/09/30 03:59:19;;;;;;;2.93;0.73;;;13.80;99.90;;;;;;5023322;28;20460;-71
2021/09/30 04:01:55;;;;;;;0.60;0.60;;;13.80;99.90;;;;;;5023876;28;20494;-73
2021/09/30 04:04:26;;;;;;;0.60;0.60;;;13.80;99.90;;;;;;5021390;28;21143;-73
2021/09/30 04:06:55;;;;;;;1.07;0.60;;;13.80;99.90;;;;;;5022980;28;21164;-72
2021/09/30 04:09:27;;;;;;;1.23;0.60;;;13.70;99.90;;;;;;5023449;28;20501;-76
2021/09/30 04:11:59;;;;;;;0.50;0.50;;;13.70;99.90;;;;;;5022389;28;20870;-73
2021/09/30 04:14:28;;;;;;;1.00;0.67;;;13.80;99.90;;;;;;5022267;28;20487;-74
2021/09/30 04:16:57;;;;;;;1.10;0.67;;;13.70;99.90;;;;;;5021548;28;20468;-76
2021/09/30 04:19:25;;;;;;;1.43;0.60;;;13.70;99.90;;;;;;5023456;28;21034;-71
2021/09/30 04:21:55;;;;;;;2.20;0.80;;;13.90;99.90;;;;;;5019168;28;20486;-72
2021/09/30 04:24:24;;;;;;;1.80;0.70;;;13.70;99.90;;;;;;5022400;28;20476;-71
2021/09/30 04:26:55;;;;;;;0.60;0.60;;;13.60;99.90;;;;;;5022065;28;21037;-76
2021/09/30 04:29:25;;;;;;;0.90;0.60;;;13.50;99.90;;;;;;5023851;28;20446;-76
2021/09/30 04:31:54;;;;;;;3.23;0.60;;;13.70;99.90;;;;;;5020674;28;20438;-73
2021/09/30 04:34:22;;;;;;;1.37;0.60;;;13.50;99.90;;;;;;5021515;28;20468;-77
2021/09/30 04:36:50;;;;;;;0.60;0.60;;;13.00;99.90;;;;;;5023837;28;20518;-74
2021/09/30 04:39:18;;;;;;;0.53;0.53;;;12.80;99.90;;;;;;5022132;28;20512;-72
2021/09/30 04:41:48;;;;;;;0.50;0.50;;;12.50;99.90;;;;;;5024978;28;20482;-74
2021/09/30 04:44:16;;;;;;;0.57;0.57;;;12.60;99.90;;;;;;5026483;28;20991;-76
2021/09/30 04:46:46;;;;;;;1.50;0.50;;;13.00;99.90;;;;;;5024640;28;20458;-76
2021/09/30 04:49:14;;;;;;;0.83;0.60;;;13.00;99.90;;;;;;5025762;28;20515;-76
2021/09/30 04:51:42;;;;;;;0.70;0.70;;;12.80;99.90;;;;;;5025053;28;20521;-76
2021/09/30 04:54:10;;;;;;;1.17;0.60;;;12.40;99.90;;;;;;5022904;28;20566;-75
2021/09/30 04:56:39;;;;;;;2.70;0.60;;;12.10;99.90;;;;;;5022525;28;20460;-78
2021/09/30 04:59:07;;;;;;;0.97;0.63;;;12.20;99.90;;;;;;5024917;28;20452;-77
2021/09/30 05:01:35;;;;;;;1.33;0.70;;;12.10;99.90;;;;;;5021433;28;21063;-75
2021/09/30 05:04:05;;;;;;;1.30;0.70;;;12.00;99.90;;;;;;5016521;28;20476;-76
2021/09/30 05:06:33;;;;;;;0.60;0.60;;;11.80;99.90;;;;;;5019766;28;20465;-77
2021/09/30 05:09:02;;;;;;;1.40;0.60;;;11.70;99.90;;;;;;5023924;28;20450;-75
2021/09/30 05:11:35;;;;;;;0.93;0.80;;;11.60;99.90;;;;;;5021977;28;21149;-79
2021/09/30 05:14:04;;;;;;;1.17;0.80;;;11.80;99.90;;;;;;5022756;28;20468;-76
2021/09/30 05:16:32;;;;;;;0.80;0.80;;;12.10;99.90;;;;;;5016761;28;21020;-75
2021/09/30 05:19:01;;;;;;;0.97;0.80;;;12.00;99.90;;;;;;5020381;28;20890;-79
2021/09/30 05:21:31;;;;;;;0.63;0.60;;;12.20;99.90;;;;;;5020068;28;20452;-76
2021/09/30 05:23:59;;;;;;;1.80;0.70;;;12.50;99.90;;;;;;5018265;28;21017;-76
2021/09/30 05:26:28;;;;;;;0.90;0.70;;;12.50;99.90;;;;;;5019105;28;20457;-75
2021/09/30 05:28:57;;;;;;;1.60;0.70;;;12.50;99.90;;;;;;5009389;28;20458;-79
2021/09/30 05:31:25;;;;;;;1.10;0.70;;;12.80;99.90;;;;;;5019472;28;20584;-76
2021/09/30 05:33:53;;;;;;;1.37;1.33;;;12.90;99.90;;;;;;5011846;28;21800;-79
2021/09/30 05:36:22;;;;;;;2.90;0.90;;;13.00;99.90;;;;;;5015637;28;20464;-75
2021/09/30 05:38:52;;;;;;;1.67;0.83;;;12.90;99.90;;;;;;5020278;28;20507;-74
2021/09/30 05:41:20;;;;;;;2.43;1.00;;;12.70;99.90;;;;;;5018573;28;21035;-75
2021/09/30 05:43:52;;;;;;;1.67;1.10;;;12.70;99.90;;;;;;5020715;28;20481;-78
2021/09/30 05:46:34;;;;;;;1.20;1.00;;;12.50;99.90;;;;;;5016439;28;20493;-76
2021/09/30 05:49:02;;;;;;;1.38;0.80;;;12.40;99.90;;;;;;5007702;28;20456;-75
2021/09/30 05:51:30;;;;;;;1.33;0.95;;;12.80;99.90;;;;;;5016996;28;21172;-75
2021/09/30 05:53:59;;;;;;;1.20;1.00;;;12.80;99.90;;;;;;5020151;28;20212;-75
2021/09/30 05:56:28;;;;;;;1.30;0.80;;;12.90;99.90;;;;;;5020977;28;20501;-78
2021/09/30 05:58:57;;;;;;;1.60;0.70;;;13.00;99.90;;;;;;5021389;28;20451;-76
2021/09/30 06:02:07;;;;;;;0.70;0.70;;;13.00;99.90;;;;;;5015923;28;20513;-76
2021/09/30 06:10:28;;;;;;;1.13;0.90;;;13.00;99.90;;;;;;5020169;28;20488;-78
2021/09/30 06:12:59;;;;;;;1.60;0.80;;;12.50;99.90;;;;;;5013954;28;20501;-78
2021/09/30 06:15:31;;;;;;;2.30;0.80;;;12.60;99.90;;;;;;5016411;28;20807;-77
2021/09/30 06:18:00;;;;;;;0.80;0.70;;;12.50;99.90;;;;;;5009095;28;20450;-77
2021/09/30 06:20:33;;;;;;;0.90;0.60;;;12.60;99.90;;;;;;5015094;28;20879;-74
2021/09/30 06:23:02;;;;;;;0.70;0.70;;;12.70;99.90;;;;;;5016798;28;20531;-76
2021/09/30 06:25:31;;;;;;;1.17;0.60;;;12.90;99.90;;;;;;5006001;28;20457;-76
2021/09/30 06:28:00;;;;;;;1.37;0.67;;;13.10;99.90;;;;;;5018885;28;20459;-76
2021/09/30 06:30:30;;;;;;;3.63;1.40;;;13.20;99.90;;;;;;5018439;28;20462;-76
2021/09/30 06:33:00;;;;;;;3.13;0.80;;;13.30;99.90;;;;;;5011559;28;20918;-76
2021/09/30 06:35:29;;;;;;;2.30;0.87;;;13.20;99.90;;;;;;5008906;28;20482;-76
2021/09/30 06:37:57;;;;;;;1.00;0.70;;;13.30;99.90;;;;;;5017789;28;20451;-76
2021/09/30 06:40:26;;;;;;;2.93;0.90;;;13.20;99.90;;;;;;5008917;28;20462;-76
2021/09/30 06:42:55;;;;;;;0.77;0.70;;;13.20;99.90;;;;;;5017704;28;20475;-76
2021/09/30 06:45:23;;;;;;;1.83;0.80;;;13.10;99.90;;;;;;5010837;28;20714;-76
2021/09/30 06:47:51;;;;;;;2.90;0.90;;;12.90;99.90;;;;;;5015236;28;20457;-76
2021/09/30 06:50:20;;;;;;;1.47;0.70;;;12.90;99.90;;;;;;5017525;28;20877;-76
2021/09/30 06:52:48;;;;;;;1.27;0.73;;;13.10;99.90;;;;;;5008498;28;20505;-75
2021/09/30 06:55:16;;;;;;;3.40;0.80;;;13.40;99.90;;;;;;5008349;28;20975;-75
2021/09/30 06:57:46;;;;;;;1.03;0.70;;;13.20;99.90;;;;;;5011994;28;20464;-72
2021/09/30 07:00:16;;;;;;;0.80;0.80;;;13.10;99.90;;;;;;5010201;28;21137;-76
2021/09/30 07:02:44;;;;;;;1.87;0.73;;;13.00;99.90;;;;;;5015915;28;20488;-76
2021/09/30 07:05:15;;;;;;;0.63;0.63;;;13.10;99.90;;;;;;5016433;28;20442;-75
2021/09/30 07:07:43;;;;;;;2.50;0.80;;;13.20;99.90;;;;;;5019429;28;20467;-74
2021/09/30 07:10:12;;;;;;;1.47;0.67;;;13.30;99.90;;;;;;5016187;28;20465;-76
2021/09/30 07:12:41;;;;;;;2.23;0.80;;;13.50;99.90;;;;;;5013944;28;20495;-76
2021/09/30 07:15:11;;;;;;;1.43;1.00;;;13.50;99.90;;;;;;5013897;28;20476;-76
2021/09/30 07:17:40;;;;;;;1.10;1.00;;;13.70;99.90;;;;;;5013803;28;20445;-75
2021/09/30 07:20:09;;;;;;;1.37;0.77;;;13.80;99.90;;;;;;5014302;28;20673;-76
2021/09/30 07:22:39;;;;;;;0.70;0.70;;;13.90;99.90;;;;;;5016734;28;20473;-75
2021/09/30 07:25:09;;;;;;;1.27;0.70;;;14.00;99.90;;;;;;5005532;28;20511;-76
2021/09/30 07:27:37;;;;;;;1.60;0.70;;;14.10;99.90;;;;;;5009771;28;20912;-75
2021/09/30 07:30:07;;;;;;;0.80;0.70;;;14.10;99.90;;;;;;5010714;28;20460;-75
2021/09/30 07:32:35;;;;;;;1.90;0.67;;;14.20;99.90;;;;;;5010131;28;20486;-75
2021/09/30 07:35:06;;;;;;;3.30;1.27;;;14.10;99.90;;;;;;5005301;28;20870;-74
2021/09/30 07:37:35;;;;;;;2.40;0.90;;;14.10;99.90;;;;;;5013428;28;20470;-76
2021/09/30 07:40:04;;;;;;;1.87;0.80;;;14.10;99.90;;;;;;5019013;28;21493;-76
2021/09/30 07:42:32;;;;;;;2.70;0.77;;;14.30;99.90;;;;;;5013306;28;20920;-76
2021/09/30 07:45:01;;;;;;;2.00;0.60;;;14.40;99.90;;;;;;5011239;28;20537;-76
2021/09/30 07:47:29;;;;;;;1.33;0.70;;;14.40;99.90;;;;;;5015084;28;20467;-74
2021/09/30 07:49:57;;;;;;;1.10;0.63;;;14.50;99.90;;;;;;5014051;28;20542;-76
2021/09/30 07:52:27;;;;;;;2.20;0.80;;;14.70;99.90;;;;;;5011293;28;21046;-73
2021/09/30 07:54:55;;;;;;;3.10;0.80;;;15.20;99.90;;;;;;5010092;28;21238;-73
2021/09/30 07:57:23;;;;;;;0.97;0.57;;;15.50;99.90;;;;;;5014156;28;20472;-74
2021/09/30 07:59:52;;;;;;;1.80;0.70;;;15.90;99.90;;;;;;5009522;28;20643;-74
2021/09/30 08:02:20;;;;;;;1.27;0.50;;;16.20;99.90;;;;;;5008892;28;20464;-74
2021/09/30 08:04:48;;;;;;;0.70;0.63;;;16.50;99.90;;;;;;5012190;28;20548;-74
2021/09/30 08:07:17;;;;;;;2.40;0.70;;;16.70;99.90;;;;;;5022415;28;20832;-72
2021/09/30 08:09:46;;;;;;;1.67;0.70;;;17.10;99.90;;;;;;5021373;28;20450;-73
2021/09/30 08:12:15;;;;;;;1.23;0.70;;;17.30;99.90;;;;;;5016375;28;20456;-74
2021/09/30 08:14:43;;;;;;;1.43;0.70;;;17.40;99.90;;;;;;5023239;28;20229;-73
2021/09/30 08:17:11;;;;;;;1.50;0.60;;;17.50;99.90;;;;;;5022973;28;21370;-73
2021/09/30 08:19:39;;;;;;;1.30;0.60;;;17.70;99.90;;;;;;5013124;28;20583;-72
2021/09/30 08:22:08;;;;;;;0.90;0.70;;;17.90;99.90;;;;;;5023683;28;20467;-75
2021/09/30 08:24:36;;;;;;;1.70;0.50;;;18.00;99.90;;;;;;5023575;28;20488;-76
2021/09/30 08:27:05;;;;;;;1.60;0.80;;;18.20;99.90;;;;;;5024059;28;20744;-71
2021/09/30 08:29:35;;;;;;;0.80;0.50;;;18.30;99.90;;;;;;5024587;28;20342;-71
2021/09/30 08:32:04;;;;;;;0.50;0.50;;;18.30;99.90;;;;;;5012108;28;20198;-74
2021/09/30 08:34:32;;;;;;;0.50;0.50;;;18.40;99.90;;;;;;5011981;28;20477;-74
2021/09/30 08:37:00;;;;;;;0.97;0.60;;;18.40;99.90;;;;;;5016175;28;20468;-74
2021/09/30 08:39:28;;;;;;;0.90;0.70;;;18.50;99.90;;;;;;5012900;28;20851;-74
2021/09/30 08:41:56;;;;;;;0.63;0.63;;;18.50;99.90;;;;;;5011472;28;20460;-74
2021/09/30 08:44:26;;;;;;;1.13;0.60;;;18.50;99.90;;;;;;5012975;28;20477;-74
2021/09/30 08:46:55;;;;;;;0.57;0.57;;;18.60;99.90;;;;;;5019799;28;21011;-75
2021/09/30 08:49:24;;;;;;;3.50;0.50;;;18.70;99.90;;;;;;5022111;28;20460;-74
2021/09/30 08:51:52;;;;;;;2.50;0.73;;;18.90;99.90;;;;;;5021507;28;21030;-74
2021/09/30 08:54:20;;;;;;;1.00;0.60;;;19.00;99.90;;;;;;5018222;28;20476;-74
2021/09/30 08:56:48;;;;;;;0.73;0.50;;;19.00;99.90;;;;;;5021407;28;20476;-75
2021/09/30 08:59:18;;;;;;;0.70;0.70;;;19.10;99.90;;;;;;5015726;28;20457;-75
2021/09/30 09:02:06;;;;;;;0.80;0.57;;;19.10;99.90;;;;;;5016777;28;20478;-74
2021/09/30 09:04:57;;;;;;;0.87;0.67;;;19.10;99.90;;;;;;5022701;28;20460;-74
2021/09/30 09:07:28;;;;;;;2.20;0.70;;;19.40;99.90;;;;;;5024245;28;20861;-71
2021/09/30 09:09:57;;;;;;;0.90;0.70;;;19.60;99.90;;;;;;5016948;28;20527;-75
2021/09/30 09:12:26;;;;;;;1.30;0.53;;;19.70;99.90;;;;;;5004208;28;20659;-74
2021/09/30 09:14:55;;;;;;;0.90;0.60;;;20.00;99.90;;;;;;5004389;28;20444;-72
2021/09/30 09:17:24;;;;;;;0.97;0.50;;;20.10;99.90;;;;;;5009663;28;20456;-75
2021/09/30 09:19:55;;;;;;;2.03;0.63;;;20.20;99.90;;;;;;5018451;28;20456;-74
2021/09/30 09:22:25;;;;;;;0.83;0.47;;;20.40;99.90;;;;;;5018415;28;20882;-74
2021/09/30 09:25:03;;;;;;;1.30;0.70;;;20.30;99.90;;;;;;5023332;28;20477;-74
2021/09/30 09:27:53;;;;;;;0.80;0.50;;;20.10;99.90;;;;;;5021174;28;20540;-74
2021/09/30 09:30:41;;;;;;;0.87;0.63;;;19.80;99.90;;;;;;5016197;28;20452;-74
2021/09/30 09:33:14;;;;;;;1.20;0.60;;;19.60;99.90;;;;;;5009295;28;20512;-75
2021/09/30 09:36:08;;;;;;;1.00;0.60;;;19.50;99.90;;;;;;5021400;28;20449;-73
2021/09/30 09:38:49;;;;;;;0.70;0.50;;;19.30;99.90;;;;;;5019530;28;20457;-74
2021/09/30 09:41:24;;;;;;;1.00;0.57;;;19.10;99.90;;;;;;5026935;28;20933;-74
2021/09/30 09:43:54;;;;;;;1.63;0.52;;;18.70;99.90;;;;;;5013246;28;21104;-76
2021/09/30 09:46:27;;;;;;;1.23;0.43;;;18.90;99.90;;;;;;5015442;28;20701;-76
2021/09/30 09:49:00;;;;;;;0.73;0.73;;;18.90;99.90;;;;;;5022346;28;20468;-74
2021/09/30 09:51:35;;;;;;;0.80;0.50;;;18.70;99.90;;;;;;5022343;28;20585;-75
2021/09/30 09:54:15;;;;;;;1.03;0.60;;;18.80;99.90;;;;;;5006601;28;20465;-73
2021/09/30 09:56:44;;;;;;;0.50;0.50;;;18.80;99.90;;;;;;5002793;28;20449;-76
2021/09/30 09:59:13;;;;;;;1.10;0.50;;;18.80;99.90;;;;;;5022608;28;20457;-74
2021/09/30 10:01:43;;;;;;;0.60;0.50;;;18.70;99.90;;;;;;5009821;28;20568;-74
2021/09/30 10:04:14;;;;;;;2.00;0.50;;;18.80;99.90;;;;;;5011823;28;20460;-77
2021/09/30 10:06:43;;;;;;;0.77;0.60;;;18.70;99.90;;;;;;5012096;28;20527;-72
2021/09/30 10:09:14;;;;;;;0.60;0.60;;;18.50;99.90;;;;;;5013200;28;20523;-74
2021/09/30 10:11:42;;;;;;;3.90;0.80;;;18.40;99.90;;;;;;5013261;28;21365;-75
2021/09/30 10:14:12;;;;;;;0.60;0.60;;;18.50;99.90;;;;;;5018444;28;20480;-74
2021/09/30 10:16:42;;;;;;;0.80;0.80;;;18.50;99.90;;;;;;5015894;28;20471;-74
2021/09/30 10:19:10;;;;;;;0.97;0.67;;;18.60;99.90;;;;;;5016615;28;21011;-74
2021/09/30 10:21:40;;;;;;;0.75;0.60;;;18.60;99.90;;;;;;5012167;28;20499;-75
2021/09/30 10:24:15;;;;;;;2.13;0.60;;;18.70;99.90;;;;;;5019909;28;20225;-74
2021/09/30 10:26:52;;;;;;;3.47;1.00;;;18.70;99.90;;;;;;5015793;28;20467;-75
2021/09/30 10:29:42;;;;;;;2.30;0.63;;;18.60;99.90;;;;;;5022064;28;20460;-74
2021/09/30 10:32:12;;;;;;;0.70;0.70;;;18.50;99.90;;;;;;5022764;28;20479;-74
2021/09/30 10:34:42;;;;;;;0.50;0.50;;;18.30;99.90;;;;;;5022269;28;20453;-76
2021/09/30 10:37:20;;;;;;;1.47;0.70;;;18.30;99.90;;;;;;5015862;28;21003;-75
2021/09/30 10:40:17;;;;;;;0.90;0.50;;;18.20;99.90;;;;;;5019657;28;21092;-76
2021/09/30 10:42:53;;;;;;;2.20;0.60;;;18.10;99.90;;;;;;5014010;28;20476;-75
2021/09/30 10:45:24;;;;;;;1.10;0.57;;;18.20;99.90;;;;;;5022115;28;20498;-75
2021/09/30 10:47:53;;;;;;;1.60;0.50;;;18.30;99.90;;;;;;5016116;28;20460;-76
2021/09/30 10:50:45;;;;;;;0.70;0.63;;;18.40;99.90;;;;;;5023243;28;20468;-75
2021/09/30 10:53:15;;;;;;;0.80;0.70;;;18.50;99.90;;;;;;5023487;28;20472;-74
2021/09/30 10:55:43;;;;;;;1.00;0.70;;;18.50;99.90;;;;;;5017496;28;20552;-75
2021/09/30 10:58:22;;;;;;;2.17;0.60;;;18.50;99.90;;;;;;5015297;28;20514;-75
2021/09/30 11:00:52;;;;;;;2.60;0.50;;;18.50;98.70;;;;;;5035743;28;20514;-75
2021/09/30 11:03:24;;;;;;;1.30;0.50;;;18.50;99.80;;;;;;5019874;28;21204;-74
2021/09/30 11:06:14;;;;;;;0.70;0.50;;;18.60;99.90;;;;;;5014708;28;20445;-74
2021/09/30 11:08:48;;;;;;;1.10;0.80;;;18.80;99.90;;;;;;5023545;28;20471;-73
2021/09/30 11:11:25;;;;;;;1.10;0.47;;;19.20;99.90;;;;;;5014839;28;20453;-74
2021/09/30 11:14:13;;;;;;;0.50;0.50;;;19.50;99.90;;;;;;5015696;28;20936;-75
2021/09/30 11:16:45;;;;;;;0.70;0.50;;;19.50;99.90;;;;;;5013822;28;20480;-72
2021/09/30 11:19:26;;;;;;;1.63;1.07;;;19.30;99.90;;;;;;5020370;28;20776;-75
2021/09/30 11:21:54;;;;;;;0.40;0.40;;;19.20;95.10;;;;;;5023426;28;20984;-74
2021/09/30 11:24:34;;;;;;;0.50;0.50;;;18.70;96.20;;;;;;5021099;28;20484;-73
2021/09/30 11:27:16;;;;;;;0.50;0.50;;;18.70;97.00;;;;;;5006239;28;21001;-75
2021/09/30 11:29:46;;;;;;;0.53;0.50;;;18.80;96.70;;;;;;5022657;28;21131;-74
2021/09/30 11:32:28;;;;;;;0.70;0.50;;;18.90;98.30;;;;;;5018519;28;20490;-74
2021/09/30 11:35:03;;;;;;;0.50;0.50;;;18.70;92.70;;;;;;5019021;28;21288;-74
2021/09/30 11:37:42;;;;;;;0.63;0.50;;;18.70;94.90;;;;;;5025118;28;20961;-74
2021/09/30 11:40:18;;;;;;;2.00;0.70;;;18.40;91.80;;;;;;5014295;28;20285;-74
2021/09/30 11:42:53;;;;;;;2.10;0.60;;;18.60;93.80;;;;;;5017279;28;20480;-74
2021/09/30 11:45:24;;;;;;;1.17;0.50;;;18.80;96.40;;;;;;5021492;28;20460;-73
2021/09/30 11:48:03;;;;;;;0.87;0.50;;;18.90;95.70;;;;;;5021774;28;20492;-74
2021/09/30 11:50:33;;;;;;;1.80;0.60;;;19.00;96.10;;;;;;5016618;28;20554;-74
2021/09/30 11:53:09;;;;;;;0.60;0.50;;;19.20;96.50;;;;;;5022244;28;20744;-75
2021/09/30 11:55:43;;;;;;;0.80;0.60;;;19.20;98.40;;;;;;5018089;28;20514;-74
2021/09/30 11:58:14;;;;;;;2.83;0.60;;;19.30;99.90;;;;;;5025571;28;20566;-73
2021/09/30 12:00:45;;;;;;;0.90;0.53;;;19.30;98.80;;;;;;5018109;28;20484;-74
2021/09/30 12:03:19;;;;;;;1.13;0.50;;;19.50;99.60;;;;;;5019802;28;20477;-73
2021/09/30 12:05:52;;;;;;;3.30;0.60;;;19.60;99.90;;;;;;5014255;28;20469;-74
2021/09/30 12:08:20;;;;;;;0.80;0.60;;;19.30;97.30;;;;;;5021412;28;20556;-72
2021/09/30 12:10:59;;;;;;;1.20;0.80;;;19.40;99.90;;;;;;5021778;28;20457;-72
2021/09/30 12:13:28;;;;;;;1.43;0.50;;;19.60;99.90;;;;;;5015300;28;20833;-74
2021/09/30 12:16:03;;;;;;;0.70;0.60;;;19.30;96.20;;;;;;5024850;28;20467;-73
2021/09/30 12:18:32;;;;;;;1.13;0.50;;;19.40;98.60;;;;;;5021186;28;20822;-75
2021/09/30 12:21:01;;;;;;;0.87;0.77;;;19.50;98.10;;;;;;5019123;28;20947;-76
2021/09/30 12:23:30;;;;;;;1.07;0.50;;;19.40;98.30;;;;;;5028625;28;20930;-75
2021/09/30 12:26:01;;;;;;;0.90;0.60;;;19.30;96.40;;;;;;5028134;28;20549;-78
2021/09/30 12:28:30;;;;;;;2.93;1.20;;;19.20;95.30;;;;;;5021031;28;20473;-76
2021/09/30 12:31:04;;;;;;;8.47;1.73;;;19.20;96.80;;;;;;5019544;28;20464;-76
2021/09/30 12:33:32;;;;;;;2.50;0.73;;;19.30;96.20;;;;;;5015564;28;20502;-76
2021/09/30 12:36:06;;;;;;;0.60;0.60;;;19.30;96.40;;;;;;5020976;28;21020;-76
2021/09/30 12:38:34;;;;;;;4.63;0.87;;;19.30;98.70;;;;;;5019624;28;20464;-77
2021/09/30 12:41:06;;;;;;;1.23;0.60;;;19.50;99.90;;;;;;5014555;28;20453;-76
2021/09/30 12:43:38;;;;;;;1.10;0.70;;;19.60;99.00;;;;;;5025562;28;20549;-75
2021/09/30 12:46:11;;;;;;;1.23;0.60;;;19.60;99.90;;;;;;5017023;28;20206;-75
2021/09/30 12:48:41;;;;;;;1.23;0.63;;;19.40;97.00;;;;;;5023362;28;20468;-77
2021/09/30 12:51:12;;;;;;;0.80;0.60;;;19.30;99.70;;;;;;5008178;28;20506;-77
2021/09/30 12:53:45;;;;;;;1.53;0.60;;;19.40;97.40;;;;;;5022014;28;20769;-75
2021/09/30 12:56:17;;;;;;;0.60;0.50;;;19.50;97.70;;;;;;5027455;28;20446;-76
2021/09/30 12:58:47;;;;;;;1.10;0.60;;;19.30;95.70;;;;;;5025814;28;20476;-77
2021/09/30 13:01:27;;;;;;;0.50;0.50;;;19.20;96.40;;;;;;5025216;28;20524;-77
2021/09/30 13:04:10;;;;;;;1.50;0.60;;;19.40;99.30;;;;;;5018561;28;20477;-76
2021/09/30 13:06:41;;;;;;;1.53;0.60;;;19.40;96.00;;;;;;5017331;28;20530;-75
2021/09/30 13:09:21;;;;;;;1.23;0.50;;;19.40;96.80;;;;;;5021594;28;20502;-77
2021/09/30 13:11:55;;;;;;;0.77;0.50;;;19.40;96.00;;;;;;5016383;28;20511;-77
2021/09/30 13:14:28;;;;;;;1.00;0.60;;;19.40;98.30;;;;;;5025245;28;20515;-77
2021/09/30 13:16:58;;;;;;;1.30;0.60;;;19.60;96.30;;;;;;5020207;28;20449;-77
2021/09/30 13:19:46;;;;;;;0.87;0.50;;;19.50;94.30;;;;;;5025770;28;20494;-77
2021/09/30 13:22:17;;;;;;;1.17;0.57;;;19.50;95.50;;;;;;5015220;28;20901;-75
2021/09/30 13:24:46;;;;;;;0.80;0.60;;;19.60;97.30;;;;;;5025727;28;20466;-75
2021/09/30 13:27:19;;;;;;;1.63;1.53;;;19.70;97.70;;;;;;5019058;28;20469;-78
2021/09/30 13:29:48;;;;;;;1.00;0.70;;;19.70;97.30;;;;;;5023184;28;20862;-78
2021/09/30 13:32:19;;;;;;;0.47;0.47;;;19.70;95.90;;;;;;5020802;28;20460;-78
2021/09/30 13:34:47;;;;;;;0.40;0.40;;;19.70;96.80;;;;;;5018348;28;20547;-75
2021/09/30 13:37:15;;;;;;;0.90;0.50;;;19.80;98.40;;;;;;5024547;28;20984;-76
2021/09/30 13:39:44;;;;;;;0.60;0.60;;;19.80;97.40;;;;;;5022476;28;20460;-76
2021/09/30 13:42:12;;;;;;;0.90;0.65;;;19.90;97.80;;;;;;5015407;28;20445;-77
2021/09/30 13:44:42;;;;;;;2.00;0.50;;;20.00;98.90;;;;;;5018944;28;20208;-76
2021/09/30 13:47:10;;;;;;;1.00;0.60;;;20.00;96.90;;;;;;5014447;28;20486;-78
2021/09/30 13:49:39;;;;;;;0.50;0.50;;;19.90;96.20;;;;;;5012583;28;20465;-77
2021/09/30 13:52:08;;;;;;;0.87;0.70;;;19.70;94.90;;;;;;5016620;28;20456;-75
2021/09/30 13:54:36;;;;;;;0.50;0.50;;;19.80;96.40;;;;;;5021161;28;21113;-75
2021/09/30 13:57:04;;;;;;;2.27;0.60;;;19.90;97.70;;;;;;5022424;28;20448;-77
2021/09/30 13:59:32;;;;;;;0.57;0.50;;;20.00;97.90;;;;;;5011973;28;20560;-78
2021/09/30 14:02:22;;;;;;;0.50;0.50;;;19.90;97.80;;;;;;5038402;28;20475;-76
2021/09/30 14:04:50;;;;;;;1.70;0.60;;;19.90;98.40;;;;;;5011016;28;20480;-78
2021/09/30 14:07:18;;;;;;;0.70;0.57;;;20.00;98.00;;;;;;5015423;28;20480;-75
2021/09/30 14:09:46;;;;;;;1.70;0.53;;;19.80;94.70;;;;;;5020203;28;20459;-76
2021/09/30 14:12:15;;;;;;;1.03;0.50;;;19.80;94.20;;;;;;5021286;28;21018;-76
2021/09/30 14:14:43;;;;;;;1.52;0.50;;;19.90;96.20;;;;;;5017314;28;21110;-76
2021/09/30 14:17:11;;;;;;;0.80;0.50;;;19.90;97.00;;;;;;5014798;28;20452;-77
2021/09/30 14:19:40;;;;;;;1.03;0.60;;;20.00;97.00;;;;;;5020363;28;20240;-76
2021/09/30 14:22:09;;;;;;;0.80;0.60;;;20.10;99.00;;;;;;5023252;28;20445;-76
2021/09/30 14:24:37;;;;;;;1.60;0.50;;;20.20;99.10;;;;;;5021314;28;20469;-77
2021/09/30 14:27:05;;;;;;;0.73;0.73;;;20.20;99.20;;;;;;5017459;28;20543;-75
2021/09/30 14:29:39;;;;;;;1.60;0.50;;;20.20;97.20;;;;;;5017747;28;20488;-75
2021/09/30 14:32:08;;;;;;;0.60;0.60;;;20.10;97.20;;;;;;5013127;28;20451;-75
2021/09/30 14:34:36;;;;;;;0.60;0.60;;;20.00;96.70;;;;;;5000340;28;20481;-76
2021/09/30 14:37:06;;;;;;;0.50;0.50;;;19.90;95.60;;;;;;5012927;28;20456;-75
2021/09/30 14:39:34;;;;;;;1.40;0.67;;;19.70;94.10;;;;;;5017542;28;20902;-77
2021/09/30 14:42:02;;;;;;;2.75;0.60;;;19.60;92.70;;;;;;5015237;28;20439;-77
2021/09/30 14:44:30;;;;;;;2.07;0.80;;;19.60;93.20;;;;;;5007939;28;20714;-77
2021/09/30 14:46:58;;;;;;;3.63;0.57;;;19.80;93.30;;;;;;5009938;28;20457;-77
2021/09/30 14:49:26;;;;;;;0.80;0.60;;;19.80;95.70;;;;;;5014590;28;20464;-77
2021/09/30 14:51:54;;;;;;;0.53;0.50;;;19.80;94.20;;;;;;5014373;28;20454;-79
2021/09/30 14:54:23;;;;;;;0.50;0.50;;;19.70;93.10;;;;;;5008393;28;20704;-78
2021/09/30 14:56:51;;;;;;;0.73;0.60;;;19.80;95.00;;;;;;5007550;28;20456;-78
2021/09/30 14:59:19;;;;;;;1.00;0.83;;;19.90;95.30;;;;;;5015472;28;20471;-77
2021/09/30 15:01:48;;;;;;;0.60;0.50;;;19.90;95.20;;;;;;5010332;28;20999;-77
2021/09/30 15:04:16;;;;;;;0.60;0.60;;;19.80;94.00;;;;;;5009989;28;20516;-77
2021/09/30 15:06:44;;;;;;;0.60;0.60;;;19.90;93.80;;;;;;5013673;28;20467;-78
2021/09/30 15:09:12;;;;;;;1.23;0.50;;;19.80;93.60;;;;;;5016410;28;20554;-76
2021/09/30 15:11:42;;;;;;;0.90;0.60;;;19.80;93.70;;;;;;5000811;28;20449;-78
2021/09/30 15:14:11;;;;;;;0.50;0.40;;;19.80;92.80;;;;;;5015256;28;20469;-76
2021/09/30 15:16:41;;;;;;;0.50;0.50;;;19.70;92.00;;;;;;5024442;28;20460;-78
2021/09/30 15:19:16;;;;;;;0.60;0.60;;;19.60;91.30;;;;;;5020555;28;20460;-78
2021/09/30 15:21:45;;;;;;;0.70;0.60;;;19.60;91.80;;;;;;5018203;28;20990;-78
2021/09/30 15:24:15;;;;;;;1.37;0.50;;;19.50;91.00;;;;;;5011524;28;20224;-76
2021/09/30 15:26:45;;;;;;;0.90;0.60;;;19.40;89.50;;;;;;5021854;28;20448;-77